Saint Catherine, Egypt
Current Conditions -  °F | °C
As of 3:00 PM on Thursday 30 Oct 2014 (Local Time) from HESC Reporting Station
Few Clouds Few Clouds  
Wind Chill: 68°   Ceiling: Unl
Heat Index: 68°   Visibility: 6mi
Dew Point: 37°   Wind: 12mph
Humidity: 33%   Direction: 320°NW
Pressure: 30.12"   Gusts: NA
Location:  28.56°N, 33.98°E
Report Text: HESC 301300Z 32010KT 9999 FEW020 20/03 Q1020 NOSIG
Loading
Personal Weather Stations






























Interactive Weather Map New forecast layout! Learn more

10-Day Weather Forecast

Advertisements
Track Severe Weather on mobile